createdAt,value
2018-07-30T05:05:46.323Z,4.60
2018-07-30T05:10:49.646Z,4.97
2018-07-30T05:15:52.979Z,4.63
2018-07-30T05:20:56.314Z,4.30
2018-07-30T05:26:01.570Z,3.90
2018-07-30T05:31:04.920Z,4.70
2018-07-30T05:42:12.309Z,3.70
2018-07-30T05:47:15.637Z,4.03
2018-07-30T05:52:18.986Z,3.43
2018-07-30T05:57:22.319Z,4.20
2018-07-30T06:02:25.654Z,4.10
2018-07-30T06:07:28.986Z,4.37
2018-07-30T06:12:32.313Z,3.90
2018-07-30T06:17:35.653Z,3.73
2018-07-30T06:22:39.758Z,4.10
2018-07-30T06:27:43.106Z,4.20
2018-07-30T06:32:46.444Z,4.77
2018-07-30T06:37:49.778Z,4.47
2018-07-30T06:42:53.109Z,3.80
2018-07-30T06:47:56.487Z,4.63
2018-07-30T06:52:59.788Z,4.07
2018-07-30T06:58:03.123Z,4.40
2018-07-30T07:03:06.459Z,3.83
2018-07-30T07:08:09.798Z,3.57
2018-07-30T07:13:13.902Z,4.43
2018-07-30T07:18:17.234Z,3.87
2018-07-30T07:23:21.339Z,3.67
2018-07-30T07:28:24.672Z,4.70
2018-07-30T07:33:28.778Z,4.00
2018-07-30T07:38:32.107Z,3.60
2018-07-30T07:43:35.443Z,4.43
2018-07-30T07:48:39.548Z,3.13
2018-07-30T07:53:42.882Z,3.50
2018-07-30T07:58:46.976Z,4.33
2018-07-30T08:03:50.312Z,3.93
2018-07-30T08:08:54.403Z,4.20
2018-07-30T08:13:57.747Z,3.60
2018-07-30T08:19:01.094Z,4.00
2018-07-30T08:24:04.435Z,3.70
2018-07-30T08:29:07.823Z,3.63
2018-07-30T08:34:11.120Z,5.30
2018-07-30T08:39:15.218Z,4.10
2018-07-30T08:44:18.554Z,6.33
2018-07-30T08:49:22.643Z,3.87
2018-07-30T08:54:25.966Z,4.17
2018-07-30T08:59:29.319Z,3.73
2018-07-30T09:04:33.427Z,4.30
2018-07-30T09:09:36.762Z,4.60
2018-07-30T09:14:40.859Z,3.83
2018-07-30T09:19:44.203Z,3.50
2018-07-30T09:24:48.302Z,4.77
2018-07-30T09:29:51.645Z,4.20
2018-07-30T09:34:55.736Z,3.43
2018-07-30T09:39:59.080Z,4.27
2018-07-30T09:45:03.179Z,4.13
2018-07-30T09:50:06.519Z,4.00
2018-07-30T09:55:10.618Z,3.37
2018-07-30T10:00:13.938Z,3.90
2018-07-30T10:05:17.266Z,3.87
2018-07-30T10:10:20.607Z,4.47
2018-07-30T10:15:23.938Z,4.00
2018-07-30T10:20:27.266Z,3.87
2018-07-30T10:25:30.605Z,4.10
2018-07-30T10:30:33.968Z,4.00
2018-07-30T10:35:37.299Z,3.80
2018-07-30T10:40:40.635Z,3.93
2018-07-30T10:45:43.974Z,3.60
2018-07-30T10:50:48.066Z,3.63
2018-07-30T10:55:51.405Z,2.73
2018-07-30T11:00:54.770Z,3.07
2018-07-30T11:06:01.836Z,4.27
2018-07-30T11:11:05.930Z,3.63
2018-07-30T11:16:09.262Z,3.30
2018-07-30T11:21:12.591Z,3.03
2018-07-30T11:26:16.689Z,3.27
2018-07-30T11:31:20.020Z,4.80
2018-07-30T11:36:24.131Z,4.00
2018-07-30T11:41:27.473Z,3.20
2018-07-30T11:46:31.574Z,3.35
2018-07-30T11:51:34.911Z,3.72
2018-07-30T11:56:39.010Z,4.45
2018-07-30T12:01:42.364Z,3.80
2018-07-30T12:06:46.491Z,3.45
2018-07-30T12:11:50.630Z,4.35
2018-07-30T12:16:53.947Z,3.83
2018-07-30T12:21:57.286Z,3.95
2018-07-30T12:27:00.637Z,4.30
2018-07-30T12:32:03.989Z,3.78
2018-07-30T12:37:08.138Z,4.82
2018-07-30T12:42:12.198Z,3.95
2018-07-30T12:47:15.541Z,4.05
2018-07-30T12:52:19.650Z,3.92
2018-07-30T12:57:22.994Z,3.62
2018-07-30T13:02:27.102Z,4.25
2018-07-30T13:07:30.433Z,4.22
2018-07-30T13:12:33.781Z,3.80
2018-07-30T13:17:37.114Z,3.22
2018-07-30T13:22:40.445Z,4.10
2018-07-30T13:27:43.873Z,3.85
2018-07-30T13:32:47.285Z,3.70
2018-07-30T13:37:50.568Z,4.40
2018-07-30T13:42:53.902Z,4.68
2018-07-30T13:47:57.239Z,4.20
2018-07-30T13:53:01.334Z,3.47
2018-07-30T13:58:04.674Z,3.50
2018-07-30T14:03:08.779Z,3.08
2018-07-30T14:08:12.113Z,3.42
2018-07-30T14:13:16.207Z,4.18
2018-07-30T14:18:19.547Z,3.53
2018-07-30T14:23:22.884Z,2.95
2018-07-30T14:28:27.014Z,3.20
2018-07-30T14:33:30.351Z,3.47
2018-07-30T14:38:33.677Z,3.65
2018-07-30T14:43:37.024Z,3.60
2018-07-30T14:48:40.359Z,2.80
2018-07-30T14:53:44.454Z,4.20
2018-07-30T14:58:47.791Z,4.12
2018-07-30T15:03:51.133Z,3.28
2018-07-30T15:08:54.474Z,2.70
2018-07-30T15:13:57.811Z,3.12
2018-07-30T15:19:01.190Z,3.05
2018-07-30T15:24:04.503Z,3.58
2018-07-30T15:29:07.830Z,3.00
2018-07-30T15:34:12.444Z,3.65
2018-07-30T15:39:15.782Z,3.42
2018-07-30T15:44:19.114Z,3.58
2018-07-30T15:49:22.475Z,3.40
2018-07-30T15:54:26.830Z,3.20
2018-07-30T15:59:30.154Z,3.08
2018-07-30T16:04:40.670Z,3.25
2018-07-30T16:09:44.007Z,3.70
2018-07-30T16:14:48.109Z,3.05
2018-07-30T16:19:51.595Z,2.90
2018-07-30T16:24:54.976Z,3.45
2018-07-30T16:29:58.319Z,2.80
2018-07-30T16:35:01.686Z,3.20
2018-07-30T16:40:05.968Z,2.85
2018-07-30T16:45:09.354Z,3.65
2018-07-30T16:50:12.694Z,3.55
2018-07-30T16:55:16.023Z,2.92
2018-07-30T17:00:19.943Z,3.28
2018-07-30T17:05:23.284Z,3.47
2018-07-30T17:10:26.618Z,3.10
2018-07-30T17:15:29.961Z,3.33
2018-07-30T17:20:33.313Z,2.80
2018-07-30T17:25:36.678Z,3.55
2018-07-30T17:30:40.207Z,2.60
2018-07-30T17:35:43.541Z,3.05
2018-07-30T17:40:47.042Z,3.33
2018-07-30T17:45:50.415Z,3.15
2018-07-30T17:50:53.766Z,2.97
2018-07-30T17:55:57.123Z,2.83
2018-07-30T18:01:01.427Z,3.80
2018-07-30T18:06:05.794Z,2.72
2018-07-30T18:11:10.095Z,3.05
2018-07-30T18:16:13.429Z,2.58
2018-07-30T18:21:16.764Z,3.40
2018-07-30T18:26:21.789Z,3.78
2018-07-30T18:31:25.126Z,2.87
2018-07-30T18:36:54.919Z,3.10
2018-07-30T18:41:58.269Z,3.10
2018-07-30T18:47:02.362Z,2.95
2018-07-30T18:52:05.708Z,3.37
2018-07-30T18:57:09.818Z,2.92
2018-07-30T19:02:13.162Z,3.08
2018-07-30T19:07:22.698Z,2.95
2018-07-30T19:12:28.239Z,3.58
2018-07-30T19:17:36.781Z,4.47
2018-07-30T19:22:40.130Z,5.55
2018-07-30T19:27:44.236Z,6.62
2018-07-30T19:32:47.570Z,4.53
2018-07-30T19:37:51.677Z,4.57
2018-07-30T19:42:55.068Z,4.72
2018-07-30T19:47:58.386Z,5.05
2018-07-30T19:53:01.723Z,5.10
2018-07-30T19:58:05.191Z,4.47
2018-07-30T20:03:08.418Z,4.90
2018-07-30T20:08:11.759Z,4.53
2018-07-30T20:13:15.107Z,5.90
2018-07-30T20:18:18.444Z,5.32
2018-07-30T20:23:21.779Z,5.25
2018-07-30T20:28:25.126Z,5.80
2018-07-30T20:33:29.226Z,4.82
2018-07-30T20:38:32.571Z,4.60
2018-07-30T20:43:36.669Z,5.15
2018-07-30T20:48:40.015Z,5.82
2018-07-30T20:53:44.123Z,4.90
2018-07-30T20:58:47.464Z,5.00
2018-07-30T21:03:50.802Z,4.72
2018-07-30T21:08:54.124Z,5.72
2018-07-30T21:13:57.469Z,6.50
2018-07-30T21:19:00.811Z,16.45
2018-07-30T21:24:04.920Z,8.10
2018-07-30T21:29:08.253Z,7.28
2018-07-30T21:34:12.372Z,6.80
2018-07-30T21:39:16.485Z,6.33
2018-07-30T21:44:19.809Z,7.33
2018-07-30T21:49:23.152Z,6.13
2018-07-30T21:54:26.504Z,11.27
2018-07-30T21:59:29.837Z,9.13
2018-07-30T22:04:33.194Z,7.83
2018-07-30T22:09:36.534Z,6.50
2018-07-30T22:14:39.873Z,6.93
2018-07-30T22:19:43.206Z,5.50
2018-07-30T22:24:47.307Z,5.70
2018-07-30T22:29:50.652Z,6.33
